Time;durP1;ratioP1;P1;durP2;ratioP2;P2;SDS_P1;SDS_P2;PMS_P1;PMS_P2;Temp;Humidity;BMP_temperature;BMP_pressure;BME280_temperature;BME280_humidity;BME280_pressure;Samples;Min_cycle;Max_cycle;Signal;HPM_P1;HPM_P2
2023/11/10 00:02:24;;;;;;;;;;;;;;;8.52;75.59;98170.76;67803;1278;1016451;-75
2023/11/10 00:05:27;;;;;;;;;;;;;;;8.51;75.63;98173.97;67804;1278;1016292;-72
2023/11/10 00:08:29;;;;;;;;;;;;;;;8.44;76.36;98167.95;67821;1278;1016429;-71
2023/11/10 00:11:32;;;;;;;;;;;;;;;8.47;76.06;98166.16;67825;1278;1019394;-72
2023/11/10 00:14:35;;;;;;;;;;;;;;;8.59;75.40;98165.13;67775;1278;1016467;-67
2023/11/10 00:17:39;;;;;;;;;;;;;;;8.57;75.56;98162.46;67836;1278;1016591;-67
2023/11/10 00:20:42;;;;;;;;;;;;;;;8.59;75.53;98155.90;67822;1278;1016503;-70
2023/11/10 00:23:44;;;;;;;;;;;;;;;8.58;75.94;98152.60;67792;1278;1016482;-69
2023/11/10 00:26:47;;;;;;;;;;;;;;;8.60;75.87;98149.54;67812;1278;1016715;-72
2023/11/10 00:29:51;;;;;;;;;;;;;;;8.57;76.52;98148.70;67790;1278;1016229;-71
2023/11/10 00:32:53;;;;;;;;;;;;;;;8.67;76.43;98143.14;67812;1278;1016202;-68
2023/11/10 00:35:56;;;;;;;;;;;;;;;8.70;76.62;98143.81;67845;1278;1016412;-68
2023/11/10 00:38:58;;;;;;;;;;;;;;;8.77;76.89;98139.38;67848;1278;1016389;-67
2023/11/10 00:42:01;;;;;;;;;;;;;;;8.81;77.11;98136.52;67782;1278;1016497;-68
2023/11/10 00:45:04;;;;;;;;;;;;;;;8.84;77.06;98128.80;67826;1278;1016231;-67
2023/11/10 00:48:06;;;;;;;;;;;;;;;8.88;77.20;98124.38;67814;1278;1016297;-68
2023/11/10 00:51:09;;;;;;;;;;;;;;;8.93;76.84;98118.66;67801;1278;1017400;-70
2023/11/10 00:54:11;;;;;;;;;;;;;;;8.73;78.32;98116.11;67767;1278;1016153;-68
2023/11/10 00:57:14;;;;;;;;;;;;;;;8.77;78.31;98109.37;67798;1278;1016468;-68
2023/11/10 01:00:16;;;;;;;;;;;;;;;8.79;78.67;98104.38;67814;1278;1016246;-71
2023/11/10 01:03:19;;;;;;;;;;;;;;;8.86;78.41;98101.84;67817;1278;1016795;-68
2023/11/10 01:06:22;;;;;;;;;;;;;;;8.88;78.03;98107.64;67809;1278;1016336;-71
2023/11/10 01:09:25;;;;;;;;;;;;;;;8.92;78.30;98100.06;67856;1278;1016471;-74
2023/11/10 01:12:27;;;;;;;;;;;;;;;8.96;78.10;98102.05;67788;1278;1016469;-71
2023/11/10 01:15:30;;;;;;;;;;;;;;;9.01;77.89;98098.93;67841;1278;1016254;-71
2023/11/10 01:18:33;;;;;;;;;;;;;;;9.06;77.79;98094.23;67827;1278;1016487;-74
2023/11/10 01:21:36;;;;;;;;;;;;;;;9.13;77.85;98094.30;67807;1278;1016150;-71
2023/11/10 01:24:39;;;;;;;;;;;;;;;9.19;77.69;98087.29;67845;1278;1016534;-72
2023/11/10 01:27:42;;;;;;;;;;;;;;;9.17;77.88;98074.89;67822;1278;1016931;-72
2023/11/10 01:30:44;;;;;;;;;;;;;;;9.19;78.36;98068.27;67809;1278;1016491;-73
2023/11/10 01:33:47;;;;;;;;;;;;;;;9.28;77.64;98060.14;67828;1278;1016732;-69
2023/11/10 01:36:49;;;;;;;;;;;;;;;9.27;78.01;98053.62;67849;1278;1018829;-72
2023/11/10 01:39:51;;;;;;;;;;;;;;;9.36;77.62;98058.75;67800;1278;1016483;-73
2023/11/10 01:42:54;;;;;;;;;;;;;;;9.37;77.85;98055.54;67799;1278;1016465;-73
2023/11/10 01:45:56;;;;;;;;;;;;;;;9.43;77.82;98054.98;67877;1278;1017298;-71
2023/11/10 01:48:59;;;;;;;;;;;;;;;9.69;75.85;98054.02;67826;1278;1016485;-73
2023/11/10 01:52:01;;;;;;;;;;;;;;;9.41;78.01;98055.85;67840;1278;1016396;-72
2023/11/10 01:55:04;;;;;;;;;;;;;;;9.56;77.29;98054.09;67803;1278;1016475;-72
2023/11/10 01:58:06;;;;;;;;;;;;;;;9.53;77.23;98054.61;67823;1278;1016169;-73
2023/11/10 02:01:11;;;;;;;;;;;;;;;9.54;77.39;98053.17;67823;1278;1016349;-73
2023/11/10 02:04:16;;;;;;;;;;;;;;;9.59;77.27;98052.66;67796;1278;1016427;-71
2023/11/10 02:07:18;;;;;;;;;;;;;;;9.71;76.79;98049.52;67814;1278;1016378;-72
2023/11/10 02:10:22;;;;;;;;;;;;;;;9.78;76.58;98047.30;67838;1278;1016386;-73
2023/11/10 02:13:24;;;;;;;;;;;;;;;9.81;76.18;98041.89;67829;1278;1016218;-68
2023/11/10 02:16:26;;;;;;;;;;;;;;;9.75;76.71;98040.95;67822;1278;1016493;-72
2023/11/10 02:19:29;;;;;;;;;;;;;;;9.82;76.16;98036.69;67838;1278;1017005;-72
2023/11/10 02:22:31;;;;;;;;;;;;;;;9.92;75.53;98041.09;67878;1278;1016762;-68
2023/11/10 02:25:34;;;;;;;;;;;;;;;9.97;75.36;98036.91;67797;1278;1016580;-71
2023/11/10 02:28:38;;;;;;;;;;;;;;;9.96;75.62;98031.88;67802;1278;1016445;-71
2023/11/10 02:31:40;;;;;;;;;;;;;;;9.94;75.51;98033.47;67809;1278;1016416;-72
2023/11/10 02:34:43;;;;;;;;;;;;;;;9.83;76.24;98026.69;67792;1278;1016398;-72
2023/11/10 02:37:45;;;;;;;;;;;;;;;9.88;76.07;98024.09;67830;1278;1016450;-70
2023/11/10 02:40:48;;;;;;;;;;;;;;;9.86;76.06;98023.52;67798;1278;1017021;-72
2023/11/10 02:43:50;;;;;;;;;;;;;;;9.79;76.88;98019.29;67809;1278;1016310;-72
2023/11/10 02:46:53;;;;;;;;;;;;;;;9.88;76.26;98014.81;67828;1278;1016947;-72
2023/11/10 02:49:56;;;;;;;;;;;;;;;10.04;75.30;98018.77;67792;1278;1016435;-70
2023/11/10 02:52:58;;;;;;;;;;;;;;;10.10;74.95;98014.02;67788;1278;1016429;-69
2023/11/10 02:56:01;;;;;;;;;;;;;;;10.04;75.53;98016.45;67842;1278;1016492;-70
2023/11/10 02:59:04;;;;;;;;;;;;;;;10.01;75.50;98010.94;67796;1278;1016240;-71
2023/11/10 03:02:06;;;;;;;;;;;;;;;9.99;75.71;98012.11;67797;1278;1016479;-71
2023/11/10 03:05:09;;;;;;;;;;;;;;;10.06;75.67;98009.21;67781;1278;1016542;-72
2023/11/10 03:08:11;;;;;;;;;;;;;;;10.07;75.61;98011.23;67827;1278;1016167;-73
2023/11/10 03:11:15;;;;;;;;;;;;;;;9.98;76.49;98002.98;67859;1278;1016746;-70
2023/11/10 03:14:17;;;;;;;;;;;;;;;10.02;76.29;98003.75;67845;1278;1015961;-69
2023/11/10 03:17:20;;;;;;;;;;;;;;;10.15;75.50;97999.29;67816;1278;1016387;-72
2023/11/10 03:20:23;;;;;;;;;;;;;;;10.05;75.67;97994.89;67824;1278;1016449;-69
2023/11/10 03:23:25;;;;;;;;;;;;;;;9.99;76.24;97992.44;67818;1278;1018776;-70
2023/11/10 03:26:28;;;;;;;;;;;;;;;9.92;76.35;97988.70;67823;1278;1016345;-72
2023/11/10 03:29:31;;;;;;;;;;;;;;;9.97;76.52;97982.09;67795;1278;1016381;-73
2023/11/10 03:32:33;;;;;;;;;;;;;;;10.06;76.12;97977.22;67774;1278;1016473;-73
2023/11/10 03:35:35;;;;;;;;;;;;;;;10.03;76.26;97977.10;67801;1278;1016469;-72
2023/11/10 03:38:38;;;;;;;;;;;;;;;9.98;76.58;97976.41;67841;1278;1017133;-73
2023/11/10 03:41:41;;;;;;;;;;;;;;;9.96;76.71;97974.77;67856;1278;1018147;-73
2023/11/10 03:44:43;;;;;;;;;;;;;;;10.07;76.43;97975.58;67799;1278;1016834;-73
2023/11/10 03:47:45;;;;;;;;;;;;;;;10.04;76.17;97970.73;67807;1278;1018275;-72
2023/11/10 03:50:48;;;;;;;;;;;;;;;9.99;76.77;97961.81;67822;1278;1016347;-72
2023/11/10 03:53:50;;;;;;;;;;;;;;;10.04;76.33;97961.10;67824;1278;1016173;-71
2023/11/10 03:56:53;;;;;;;;;;;;;;;10.07;75.90;97965.43;67803;1278;1016326;-72
2023/11/10 03:59:56;;;;;;;;;;;;;;;10.08;76.01;97955.12;67786;1278;1016430;-73
2023/11/10 04:02:59;;;;;;;;;;;;;;;10.01;76.54;97956.44;67830;1278;1015993;-73
2023/11/10 04:06:01;;;;;;;;;;;;;;;10.04;76.54;97962.88;67825;1278;1016421;-74
2023/11/10 04:09:04;;;;;;;;;;;;;;;10.25;75.79;97960.16;67817;1278;1016322;-73
2023/11/10 04:12:07;;;;;;;;;;;;;;;10.25;75.79;97958.58;67825;1278;1016399;-68
2023/11/10 04:15:10;;;;;;;;;;;;;;;10.26;76.04;97957.98;67821;1278;1015728;-71
2023/11/10 04:18:12;;;;;;;;;;;;;;;10.14;76.06;97957.44;67816;1278;1016360;-73
2023/11/10 04:21:15;;;;;;;;;;;;;;;10.37;75.25;97959.13;67800;1278;1016080;-74
2023/11/10 04:24:18;;;;;;;;;;;;;;;10.41;75.23;97961.79;67793;1278;1016502;-72
2023/11/10 04:27:20;;;;;;;;;;;;;;;10.53;74.77;97957.92;67834;1278;1016382;-73
2023/11/10 04:30:23;;;;;;;;;;;;;;;10.59;74.16;97961.16;67800;1278;1016377;-68
2023/11/10 04:33:26;;;;;;;;;;;;;;;10.53;74.65;97955.30;67829;1278;1016419;-68
2023/11/10 04:36:29;;;;;;;;;;;;;;;10.47;75.04;97959.58;67851;1278;1016446;-68
2023/11/10 04:39:31;;;;;;;;;;;;;;;10.64;74.02;97954.14;67799;1278;1016354;-68
2023/11/10 04:42:34;;;;;;;;;;;;;;;10.31;75.62;97954.09;67852;1278;1016420;-71
2023/11/10 04:45:37;;;;;;;;;;;;;;;10.19;76.87;97951.69;67830;1278;1016440;-73
2023/11/10 04:48:39;;;;;;;;;;;;;;;10.17;76.90;97953.88;67807;1278;1016355;-72
2023/11/10 04:51:43;;;;;;;;;;;;;;;10.34;76.04;97953.55;67782;1278;1016178;-69
2023/11/10 04:54:47;;;;;;;;;;;;;;;10.15;76.86;97945.48;67806;1278;1016084;-69
2023/11/10 04:57:49;;;;;;;;;;;;;;;10.28;76.84;97947.66;67816;1278;1016496;-70
2023/11/10 05:00:51;;;;;;;;;;;;;;;10.30;76.73;97947.38;67799;1278;1016271;-70
2023/11/10 05:03:54;;;;;;;;;;;;;;;10.60;74.69;97951.95;67844;1278;1019287;-69
2023/11/10 05:06:58;;;;;;;;;;;;;;;10.78;73.49;97954.14;67850;1278;1016151;-74
2023/11/10 05:10:01;;;;;;;;;;;;;;;10.65;74.39;97963.66;67821;1278;1018487;-69
2023/11/10 05:13:04;;;;;;;;;;;;;;;10.46;75.52;97970.20;67796;1278;1016445;-68
2023/11/10 05:16:06;;;;;;;;;;;;;;;10.30;76.15;97972.18;67826;1278;1016511;-73
2023/11/10 05:19:09;;;;;;;;;;;;;;;10.49;75.06;97973.95;67815;1278;1016291;-73
2023/11/10 05:22:12;;;;;;;;;;;;;;;10.37;75.52;97968.53;67802;1278;1016116;-73
2023/11/10 05:25:15;;;;;;;;;;;;;;;10.26;76.57;97968.47;67842;1278;1016494;-74
2023/11/10 05:28:18;;;;;;;;;;;;;;;10.42;75.87;97966.58;67833;1278;1016515;-75
2023/11/10 05:31:20;;;;;;;;;;;;;;;10.56;75.43;97966.45;67831;1277;1016433;-69
2023/11/10 05:34:23;;;;;;;;;;;;;;;10.53;75.57;97966.16;67832;1278;1016409;-70
2023/11/10 05:37:25;;;;;;;;;;;;;;;10.68;74.56;97967.13;67805;1278;1016406;-70
2023/11/10 05:40:29;;;;;;;;;;;;;;;10.70;74.24;97970.16;67796;1278;1017234;-69
2023/11/10 05:43:32;;;;;;;;;;;;;;;10.71;74.19;97976.17;67796;1278;1016407;-72
2023/11/10 05:46:34;;;;;;;;;;;;;;;10.85;73.34;97974.77;67823;1278;1016328;-73
2023/11/10 05:49:37;;;;;;;;;;;;;;;10.80;73.08;97976.92;67805;1278;1016278;-74
2023/11/10 05:52:40;;;;;;;;;;;;;;;10.65;74.13;97973.70;67815;1278;1018669;-70
2023/11/10 05:55:43;;;;;;;;;;;;;;;10.76;73.59;97975.46;67863;1278;1016483;-71
2023/11/10 05:58:46;;;;;;;;;;;;;;;10.86;72.66;97971.89;67765;1278;1018714;-71
2023/11/10 06:01:48;;;;;;;;;;;;;;;10.81;72.69;97974.92;67823;1278;1016443;-71
2023/11/10 06:04:52;;;;;;;;;;;;;;;10.83;72.41;97977.58;67844;1278;1015980;-73
2023/11/10 06:07:54;;;;;;;;;;;;;;;10.87;72.45;97977.79;67825;1278;1016270;-74
2023/11/10 06:10:57;;;;;;;;;;;;;;;10.88;72.27;97974.38;67784;1278;1016309;-74
2023/11/10 06:14:01;;;;;;;;;;;;;;;10.96;71.85;97976.39;67806;1278;1016921;-72
2023/11/10 06:17:04;;;;;;;;;;;;;;;10.90;72.18;97982.98;67819;1278;1016101;-71
2023/11/10 06:20:06;;;;;;;;;;;;;;;10.92;71.83;97979.13;67829;1278;1020365;-72
2023/11/10 06:23:09;;;;;;;;;;;;;;;10.94;71.99;97982.88;67850;1278;1016380;-74
2023/11/10 06:26:11;;;;;;;;;;;;;;;10.89;72.25;97983.94;67835;1278;1016411;-71
2023/11/10 06:29:14;;;;;;;;;;;;;;;10.76;73.00;97986.79;67812;1278;1015983;-74
2023/11/10 06:32:18;;;;;;;;;;;;;;;10.99;72.31;97990.01;67817;1278;1016368;-73
2023/11/10 06:35:20;;;;;;;;;;;;;;;10.93;72.83;97985.00;67837;1278;1016535;-74
2023/11/10 06:38:23;;;;;;;;;;;;;;;10.87;72.74;97984.59;67811;1278;1016273;-72
2023/11/10 06:41:26;;;;;;;;;;;;;;;10.80;73.48;97982.15;67840;1278;1016498;-73
2023/11/10 06:44:28;;;;;;;;;;;;;;;10.93;73.39;97982.89;67806;1278;1016228;-74
2023/11/10 06:47:31;;;;;;;;;;;;;;;10.94;73.71;97980.25;67798;1278;1017149;-74
2023/11/10 06:50:33;;;;;;;;;;;;;;;11.02;73.53;97977.16;67812;1278;1016377;-72
2023/11/10 06:53:36;;;;;;;;;;;;;;;11.18;72.82;97972.31;67855;1278;1016438;-71
2023/11/10 06:56:39;;;;;;;;;;;;;;;11.25;72.15;97972.30;67823;1278;1018933;-72
2023/11/10 06:59:41;;;;;;;;;;;;;;;11.23;72.26;97968.19;67840;1278;1016579;-73
2023/11/10 07:02:44;;;;;;;;;;;;;;;11.26;72.24;97969.19;67838;1278;1016513;-73
2023/11/10 07:05:46;;;;;;;;;;;;;;;11.28;71.98;97973.09;67812;1278;1016959;-73
2023/11/10 07:08:49;;;;;;;;;;;;;;;11.37;72.14;97970.66;67673;1278;1016375;-72
2023/11/10 07:11:51;;;;;;;;;;;;;;;11.46;71.54;97972.05;67828;1278;1016316;-71
2023/11/10 07:14:54;;;;;;;;;;;;;;;11.69;70.68;97972.71;67861;1278;1016400;-71
2023/11/10 07:17:56;;;;;;;;;;;;;;;11.62;70.83;97971.00;67800;1278;1016722;-71
2023/11/10 07:20:59;;;;;;;;;;;;;;;11.30;73.07;97981.31;67814;1278;1016169;-74
2023/11/10 07:24:01;;;;;;;;;;;;;;;11.39;73.10;97983.30;67839;1278;1016429;-73
2023/11/10 07:27:07;;;;;;;;;;;;;;;11.44;73.34;97982.68;67801;1278;1016539;-74
2023/11/10 07:30:09;;;;;;;;;;;;;;;11.60;72.90;97984.45;67843;1278;1016709;-74
2023/11/10 07:33:12;;;;;;;;;;;;;;;11.64;72.71;97979.73;67861;1278;1016380;-70
2023/11/10 07:36:14;;;;;;;;;;;;;;;11.81;71.71;97976.67;67814;1278;1015903;-71
2023/11/10 07:39:17;;;;;;;;;;;;;;;11.95;70.87;97976.23;67798;1278;1016287;-69
2023/11/10 07:42:21;;;;;;;;;;;;;;;12.04;70.71;97969.09;67839;1278;1016040;-72
2023/11/10 07:45:23;;;;;;;;;;;;;;;12.12;70.32;97972.80;67806;1278;1016510;-70
2023/11/10 07:48:26;;;;;;;;;;;;;;;12.09;70.57;97966.58;67796;1278;1016522;-73
2023/11/10 07:51:28;;;;;;;;;;;;;;;12.11;70.22;97969.36;67818;1278;1016487;-68
2023/11/10 07:54:32;;;;;;;;;;;;;;;11.90;71.58;97974.05;67783;1278;1016529;-73
2023/11/10 07:57:35;;;;;;;;;;;;;;;12.12;71.26;97963.55;67797;1278;1015903;-71
2023/11/10 08:00:37;;;;;;;;;;;;;;;12.19;71.05;97962.60;67799;1278;1016389;-73
2023/11/10 08:03:42;;;;;;;;;;;;;;;12.21;71.17;97963.67;67850;1278;1016426;-71
2023/11/10 08:06:45;;;;;;;;;;;;;;;12.44;70.06;97966.70;67800;1278;1016319;-72
2023/11/10 08:09:49;;;;;;;;;;;;;;;12.54;69.51;97964.66;67825;1278;1016358;-73
2023/11/10 08:12:53;;;;;;;;;;;;;;;12.78;69.11;97962.89;67775;1278;1016346;-67
2023/11/10 08:15:55;;;;;;;;;;;;;;;13.15;68.38;97962.58;67779;1278;1016841;-68
2023/11/10 08:18:59;;;;;;;;;;;;;;;13.68;67.15;97961.17;67823;1278;1016520;-67
2023/11/10 08:22:01;;;;;;;;;;;;;;;13.80;67.78;97957.02;67796;1278;1016266;-67
2023/11/10 08:25:05;;;;;;;;;;;;;;;14.04;67.31;97954.55;67801;1278;1016294;-68
2023/11/10 08:28:08;;;;;;;;;;;;;;;14.36;65.64;97955.05;67840;1278;1016490;-72
2023/11/10 08:31:11;;;;;;;;;;;;;;;14.49;65.60;97954.73;67816;1278;1016443;-68
2023/11/10 08:34:13;;;;;;;;;;;;;;;14.67;65.54;97952.44;67773;1278;1016195;-68
2023/11/10 08:37:16;;;;;;;;;;;;;;;14.98;63.85;97949.27;67811;1278;1016255;-68
2023/11/10 08:40:18;;;;;;;;;;;;;;;14.91;64.79;97947.92;67822;1278;1016428;-72
2023/11/10 08:43:21;;;;;;;;;;;;;;;15.08;63.56;97949.20;67797;1278;1016716;-73
2023/11/10 08:46:24;;;;;;;;;;;;;;;15.28;63.77;97948.35;67788;1278;1016336;-73
2023/11/10 08:49:27;;;;;;;;;;;;;;;15.66;62.60;97948.67;67848;1278;1016494;-72
2023/11/10 08:52:29;;;;;;;;;;;;;;;15.72;62.10;97942.98;67773;1278;1016498;-67
2023/11/10 08:55:32;;;;;;;;;;;;;;;15.79;61.85;97943.53;67788;1278;1016345;-69
2023/11/10 08:58:34;;;;;;;;;;;;;;;15.89;61.75;97944.25;67804;1278;1015778;-69
2023/11/10 09:01:37;;;;;;;;;;;;;;;15.92;61.51;97945.45;67839;1278;1016344;-71
2023/11/10 09:04:39;;;;;;;;;;;;;;;15.57;61.93;97947.91;67822;1278;1016527;-70
2023/11/10 09:07:42;;;;;;;;;;;;;;;15.74;61.62;97950.55;67819;1278;1016389;-72
2023/11/10 09:10:44;;;;;;;;;;;;;;;16.01;60.80;97946.21;67839;1278;1015962;-67
2023/11/10 09:13:47;;;;;;;;;;;;;;;16.08;61.31;97945.59;67853;1278;1016464;-67
2023/11/10 09:16:49;;;;;;;;;;;;;;;16.28;60.30;97935.10;67817;1278;1016573;-67
2023/11/10 09:19:52;;;;;;;;;;;;;;;16.26;60.45;97932.45;67817;1278;1016361;-67
2023/11/10 09:22:55;;;;;;;;;;;;;;;16.36;60.23;97933.27;67839;1278;1016397;-68
2023/11/10 09:25:58;;;;;;;;;;;;;;;16.49;58.98;97929.52;67801;1278;1016332;-67
2023/11/10 09:29:00;;;;;;;;;;;;;;;16.53;58.86;97931.61;67781;1278;1016395;-69
2023/11/10 09:32:03;;;;;;;;;;;;;;;16.44;59.23;97935.84;67837;1278;1016608;-69
2023/11/10 09:35:06;;;;;;;;;;;;;;;16.44;59.52;97935.86;67813;1278;1016297;-70
2023/11/10 09:38:09;;;;;;;;;;;;;;;16.54;59.28;97925.85;67798;1278;1016445;-71
2023/11/10 09:41:12;;;;;;;;;;;;;;;16.69;59.24;97920.32;67788;1278;1016507;-74
2023/11/10 09:44:14;;;;;;;;;;;;;;;16.75;59.96;97915.97;67803;1278;1016389;-74
2023/11/10 09:47:17;;;;;;;;;;;;;;;16.86;59.81;97912.96;67827;1278;1016213;-74
2023/11/10 09:50:19;;;;;;;;;;;;;;;17.16;59.32;97906.59;67790;1278;1016338;-72
2023/11/10 09:53:22;;;;;;;;;;;;;;;17.39;58.03;97906.67;67780;1278;1016082;-68
2023/11/10 09:56:24;;;;;;;;;;;;;;;17.57;57.82;97909.98;67811;1278;1016381;-70
2023/11/10 09:59:27;;;;;;;;;;;;;;;17.69;56.59;97904.65;67824;1278;1016324;-68
2023/11/10 10:02:30;;;;;;;;;;;;;;;17.51;56.34;97903.38;67806;1278;1016468;-73
2023/11/10 10:05:32;;;;;;;;;;;;;;;17.49;56.73;97901.91;67819;1278;1016440;-73
2023/11/10 10:08:35;;;;;;;;;;;;;;;17.50;56.81;97899.91;67827;1278;1016513;-74
2023/11/10 10:11:38;;;;;;;;;;;;;;;17.45;58.03;97893.00;67802;1278;1016271;-71
2023/11/10 10:14:40;;;;;;;;;;;;;;;17.61;57.19;97891.30;67811;1278;1016392;-72
2023/11/10 10:17:43;;;;;;;;;;;;;;;17.53;57.08;97888.27;67789;1278;1016398;-74
2023/11/10 10:20:46;;;;;;;;;;;;;;;17.65;57.13;97889.86;67814;1278;1016828;-71
2023/11/10 10:23:49;;;;;;;;;;;;;;;17.83;57.38;97883.53;67798;1278;1016478;-69
2023/11/10 10:26:52;;;;;;;;;;;;;;;17.93;56.94;97881.63;67829;1278;1016399;-72
2023/11/10 10:29:54;;;;;;;;;;;;;;;18.02;56.74;97878.57;67854;1278;1016212;-74
2023/11/10 10:32:57;;;;;;;;;;;;;;;18.10;56.75;97875.45;67756;1278;1016407;-70
2023/11/10 10:35:59;;;;;;;;;;;;;;;18.17;56.72;97871.60;67819;1278;1016442;-66
2023/11/10 10:39:03;;;;;;;;;;;;;;;18.21;56.58;97864.65;67870;1277;1016462;-74
2023/11/10 10:42:06;;;;;;;;;;;;;;;18.18;56.14;97860.52;67814;1278;1019783;-74
2023/11/10 10:45:09;;;;;;;;;;;;;;;17.98;56.07;97860.75;67796;1278;1016789;-73
2023/11/10 10:48:12;;;;;;;;;;;;;;;17.97;55.72;97856.20;67834;1278;1016465;-75
2023/11/10 10:51:14;;;;;;;;;;;;;;;17.81;55.55;97855.16;67805;1278;1016375;-75
2023/11/10 10:54:17;;;;;;;;;;;;;;;17.81;55.65;97849.48;67804;1278;1016306;-66
2023/11/10 10:57:22;;;;;;;;;;;;;;;17.80;56.05;97850.47;67802;1278;1016452;-67
2023/11/10 11:00:25;;;;;;;;;;;;;;;17.84;56.07;97847.05;67815;1278;1016477;-66
2023/11/10 11:03:28;;;;;;;;;;;;;;;17.92;55.52;97842.83;67802;1278;1016459;-68
2023/11/10 11:06:30;;;;;;;;;;;;;;;17.96;55.22;97835.52;67791;1278;1019601;-69
2023/11/10 11:09:33;;;;;;;;;;;;;;;17.98;54.93;97833.55;67787;1278;1016059;-71
2023/11/10 11:12:35;;;;;;;;;;;;;;;17.84;55.33;97835.58;67755;1278;1016171;-66
2023/11/10 11:15:39;;;;;;;;;;;;;;;17.48;55.91;97836.98;67822;1278;1017013;-69
2023/11/10 11:18:42;;;;;;;;;;;;;;;17.43;56.18;97836.26;67793;1278;1015760;-75
2023/11/10 11:21:44;;;;;;;;;;;;;;;17.39;56.08;97837.65;67807;1278;1016369;-72
2023/11/10 11:24:47;;;;;;;;;;;;;;;17.24;56.03;97836.55;67790;1278;1016398;-74
2023/11/10 11:27:51;;;;;;;;;;;;;;;16.84;57.04;97834.42;67802;1278;1016478;-74
2023/11/10 11:30:53;;;;;;;;;;;;;;;16.49;57.69;97835.86;67733;1278;1016387;-75
2023/11/10 11:33:56;;;;;;;;;;;;;;;16.26;57.98;97837.27;67780;1278;1016444;-66
2023/11/10 11:36:58;;;;;;;;;;;;;;;16.26;58.47;97830.88;67813;1278;1016929;-73
2023/11/10 11:40:01;;;;;;;;;;;;;;;16.42;58.07;97828.79;67773;1278;1016248;-75
2023/11/10 11:43:04;;;;;;;;;;;;;;;16.46;57.93;97829.98;67828;1278;1016168;-74
2023/11/10 11:46:06;;;;;;;;;;;;;;;16.38;57.96;97829.38;67797;1278;1016369;-76
2023/11/10 11:49:08;;;;;;;;;;;;;;;16.31;58.65;97825.80;67835;1278;1016845;-75
2023/11/10 11:52:11;;;;;;;;;;;;;;;16.38;58.74;97826.53;67805;1278;1016371;-75
2023/11/10 11:55:13;;;;;;;;;;;;;;;16.32;58.92;97820.41;67784;1278;1016462;-69
2023/11/10 11:58:16;;;;;;;;;;;;;;;16.40;58.71;97816.23;67806;1278;1016436;-67
2023/11/10 12:01:18;;;;;;;;;;;;;;;16.47;58.74;97815.77;67841;1278;1018389;-67
2023/11/10 12:04:21;;;;;;;;;;;;;;;16.41;59.06;97814.58;67831;1278;1016442;-68
2023/11/10 12:07:24;;;;;;;;;;;;;;;16.36;59.73;97812.50;67771;1278;1016289;-72
2023/11/10 12:10:26;;;;;;;;;;;;;;;16.38;59.70;97809.07;67828;1278;1016486;-76
2023/11/10 12:13:29;;;;;;;;;;;;;;;16.39;59.87;97809.34;67794;1278;1015601;-73
2023/11/10 12:16:31;;;;;;;;;;;;;;;16.55;59.72;97806.46;67732;1278;1016094;-67
2023/11/10 12:19:34;;;;;;;;;;;;;;;16.73;59.35;97809.41;67796;1278;1016435;-66
2023/11/10 12:22:37;;;;;;;;;;;;;;;16.94;59.22;97808.40;67812;1278;1016167;-73
2023/11/10 12:25:39;;;;;;;;;;;;;;;17.04;58.69;97807.16;67788;1278;1017114;-72
2023/11/10 12:28:41;;;;;;;;;;;;;;;17.16;59.03;97800.98;67762;1278;1016686;-75
2023/11/10 12:31:44;;;;;;;;;;;;;;;17.29;58.30;97800.30;67779;1278;1016046;-77
2023/11/10 12:34:47;;;;;;;;;;;;;;;17.41;57.81;97801.19;67826;1278;1016414;-66
2023/11/10 12:37:49;;;;;;;;;;;;;;;17.49;57.52;97795.01;67790;1278;1016290;-70
2023/11/10 12:40:53;;;;;;;;;;;;;;;17.53;57.46;97796.08;67769;1278;1016328;-65
2023/11/10 12:43:56;;;;;;;;;;;;;;;17.41;57.37;97794.41;67749;1278;1016414;-74
2023/11/10 12:47:00;;;;;;;;;;;;;;;17.43;57.36;97788.58;67791;1278;1016414;-72
2023/11/10 12:50:03;;;;;;;;;;;;;;;17.11;57.95;97789.28;67813;1278;1017446;-71
2023/11/10 12:53:06;;;;;;;;;;;;;;;17.37;57.50;97783.74;67777;1278;1016334;-75
2023/11/10 12:56:09;;;;;;;;;;;;;;;17.47;57.05;97783.02;67789;1278;1016421;-66
2023/11/10 12:59:14;;;;;;;;;;;;;;;17.14;58.03;97780.28;67766;1278;1016310;-65
2023/11/10 13:02:16;;;;;;;;;;;;;;;17.05;58.19;97782.66;67777;1278;1018589;-68
2023/11/10 13:05:20;;;;;;;;;;;;;;;17.01;58.22;97786.95;67788;1278;1016081;-68
2023/11/10 13:08:24;;;;;;;;;;;;;;;16.86;58.37;97787.61;67792;1278;1016224;-73
2023/11/10 13:11:26;;;;;;;;;;;;;;;16.75;58.73;97782.30;67744;1278;1016058;-72
2023/11/10 13:14:29;;;;;;;;;;;;;;;16.70;58.51;97778.40;67804;1278;1017183;-66
2023/11/10 13:17:32;;;;;;;;;;;;;;;16.63;58.57;97774.58;67797;1278;1016282;-65
2023/11/10 13:20:35;;;;;;;;;;;;;;;16.47;58.92;97775.11;67756;1278;1016434;-65
2023/11/10 13:23:37;;;;;;;;;;;;;;;16.32;59.37;97776.48;67801;1278;1016403;-70
2023/11/10 13:26:41;;;;;;;;;;;;;;;16.14;59.98;97775.83;67813;1278;1016321;-65
2023/11/10 13:29:44;;;;;;;;;;;;;;;16.15;59.96;97779.64;67820;1278;1016420;-72
2023/11/10 13:32:47;;;;;;;;;;;;;;;16.56;58.63;97770.77;67752;1278;1016424;-77
2023/11/10 13:35:50;;;;;;;;;;;;;;;16.35;59.34;97774.31;67780;1278;1016411;-66
2023/11/10 13:38:53;;;;;;;;;;;;;;;16.28;59.46;97772.52;67783;1278;1018924;-67
2023/11/10 13:41:55;;;;;;;;;;;;;;;16.24;59.25;97771.27;67726;1278;1016507;-66
2023/11/10 13:44:58;;;;;;;;;;;;;;;16.16;59.63;97773.34;67766;1278;1016426;-66
2023/11/10 13:48:00;;;;;;;;;;;;;;;16.21;59.49;97772.98;67787;1278;1016766;-66
2023/11/10 13:51:04;;;;;;;;;;;;;;;16.14;59.53;97771.66;67782;1278;1016692;-67
2023/11/10 13:54:07;;;;;;;;;;;;;;;16.00;60.06;97771.23;67810;1278;1018852;-75
2023/11/10 13:57:10;;;;;;;;;;;;;;;16.01;60.07;97769.95;67771;1278;1016433;-73
2023/11/10 14:00:12;;;;;;;;;;;;;;;15.92;60.42;97766.39;67804;1278;1019352;-68
2023/11/10 14:03:15;;;;;;;;;;;;;;;15.84;60.78;97761.88;67751;1278;1016452;-75
2023/11/10 14:06:18;;;;;;;;;;;;;;;15.73;61.47;97764.94;67813;1278;1016430;-72
2023/11/10 14:09:21;;;;;;;;;;;;;;;15.72;61.46;97763.70;67791;1278;1016277;-77
2023/11/10 14:12:24;;;;;;;;;;;;;;;15.72;61.70;97768.14;67786;1278;1016319;-77
2023/11/10 14:15:27;;;;;;;;;;;;;;;15.76;61.79;97765.70;67786;1278;1015968;-77
2023/11/10 14:18:29;;;;;;;;;;;;;;;15.87;61.70;97769.35;67770;1278;1016308;-74
2023/11/10 14:21:32;;;;;;;;;;;;;;;15.84;61.93;97766.81;67776;1278;1016051;-78
2023/11/10 14:24:34;;;;;;;;;;;;;;;15.78;62.40;97763.21;67778;1278;1016516;-75
2023/11/10 14:27:37;;;;;;;;;;;;;;;15.61;63.54;97760.44;67803;1278;1016483;-76
2023/11/10 14:30:39;;;;;;;;;;;;;;;15.57;63.95;97764.86;67788;1278;1016449;-73
2023/11/10 14:33:42;;;;;;;;;;;;;;;15.44;64.71;97767.15;67779;1278;1015960;-75
2023/11/10 14:36:45;;;;;;;;;;;;;;;15.44;65.20;97764.88;67798;1278;1016310;-77
2023/11/10 14:39:47;;;;;;;;;;;;;;;15.33;65.71;97759.83;67816;1278;1016487;-77
2023/11/10 14:42:49;;;;;;;;;;;;;;;15.32;65.92;97759.41;67787;1278;1016221;-77
2023/11/10 14:45:53;;;;;;;;;;;;;;;15.25;66.46;97759.89;67749;1278;1016379;-77
2023/11/10 14:48:55;;;;;;;;;;;;;;;15.09;67.41;97758.09;67831;1278;1016391;-77
2023/11/10 14:52:03;;;;;;;;;;;;;;;14.99;68.32;97760.11;67742;1278;1016636;-77
2023/11/10 14:55:06;;;;;;;;;;;;;;;14.93;68.67;97752.95;67805;1278;1016124;-78
2023/11/10 14:58:09;;;;;;;;;;;;;;;14.82;69.71;97758.14;67770;1278;1015776;-77
2023/11/10 15:01:14;;;;;;;;;;;;;;;15.12;68.53;97759.92;67722;1278;1016055;-71
2023/11/10 15:04:20;;;;;;;;;;;;;;;15.22;68.01;97764.63;67754;1278;1016429;-77
2023/11/10 15:07:22;;;;;;;;;;;;;;;15.28;68.16;97762.46;67775;1278;1016223;-73
2023/11/10 15:10:27;;;;;;;;;;;;;;;15.22;68.38;97766.28;67765;1278;1018125;-73
2023/11/10 15:13:30;;;;;;;;;;;;;;;15.09;69.12;97773.89;67801;1278;1016458;-72
2023/11/10 15:16:34;;;;;;;;;;;;;;;14.83;70.63;97774.27;67751;1278;1016262;-70
2023/11/10 15:19:36;;;;;;;;;;;;;;;14.83;71.17;97773.58;67737;1278;1016353;-68
2023/11/10 15:22:41;;;;;;;;;;;;;;;14.90;70.59;97773.40;67776;1278;1016426;-76
2023/11/10 15:25:45;;;;;;;;;;;;;;;14.90;70.53;97779.47;67783;1278;1016492;-69
2023/11/10 15:28:47;;;;;;;;;;;;;;;14.91;70.56;97776.19;67818;1278;1016541;-76